Terminal Aerodrome Forecast
Issued by NWS Riverton, WY

Home | Current Version | Previous Version | Text Only | Print | Product List | Glossary On
Versions: 1 2 3 4 5 6 7 8 9 10 11 12 13 14 15
408
FTUS45 KRIW 100531
TAFRIW
TAF
KRIW 100531Z 1006/1106 VRB05KT P6SM SCT100 BKN200
     FM102100 24011KT P6SM BKN090
     FM110300 28015KT P6SM BKN080=

USA.gov is the U.S. government's official web portal to all federal, state and local government web resources and services.